Time;durP1;ratioP1;P1;durP2;ratioP2;P2;SDS_P1;SDS_P2;PMS_P1;PMS_P2;Temp;Humidity;BMP_temperature;BMP_pressure;BME280_temperature;BME280_humidity;BME280_pressure;Samples;Min_cycle;Max_cycle;Signal;HPM_P1;HPM_P2
2021/06/02 00:02:01;;;;;;;0.30;0.30;;;23.20;62.30;;;;;;5112359;28;20043;-63
2021/06/02 00:04:29;;;;;;;0.20;0.20;;;23.20;62.00;;;;;;5112660;28;20044;-64
2021/06/02 00:07:09;;;;;;;0.55;0.30;;;23.20;61.80;;;;;;5111744;28;20130;-64
2021/06/02 00:09:36;;;;;;;0.30;0.22;;;23.20;62.60;;;;;;5111908;28;20040;-64
2021/06/02 00:12:10;;;;;;;0.10;0.10;;;23.20;62.20;;;;;;5112057;28;20103;-64
2021/06/02 00:14:37;;;;;;;0.40;0.20;;;23.30;61.20;;;;;;5112409;28;20043;-64
2021/06/02 00:17:05;;;;;;;0.30;0.20;;;23.30;61.40;;;;;;5112085;28;20509;-64
2021/06/02 00:19:32;;;;;;;0.30;0.20;;;23.30;61.50;;;;;;5112554;28;20105;-64
2021/06/02 00:22:00;;;;;;;0.47;0.20;;;23.20;61.30;;;;;;5111889;28;20128;-64
2021/06/02 00:24:27;;;;;;;0.15;0.15;;;23.10;61.40;;;;;;5112288;28;20126;-64
2021/06/02 00:26:56;;;;;;;0.38;0.30;;;23.10;61.60;;;;;;5111988;28;20408;-64
2021/06/02 00:29:36;;;;;;;0.20;0.10;;;23.00;61.50;;;;;;5112473;28;20180;-64
2021/06/02 00:32:05;;;;;;;0.00;0.00;;;23.00;61.70;;;;;;5107412;28;20100;-64
2021/06/02 00:34:32;;;;;;;0.10;0.10;;;23.00;61.80;;;;;;5112012;28;20127;-64
2021/06/02 00:37:00;;;;;;;0.20;0.20;;;23.00;62.00;;;;;;5111957;28;20557;-64
2021/06/02 00:39:27;;;;;;;0.20;0.20;;;23.00;61.70;;;;;;5111260;28;20459;-64
2021/06/02 00:41:54;;;;;;;0.10;0.10;;;23.10;62.50;;;;;;5112129;28;20513;-64
2021/06/02 00:44:22;;;;;;;0.17;0.10;;;23.10;61.40;;;;;;5112187;28;20072;-64
2021/06/02 00:46:50;;;;;;;0.47;0.20;;;23.10;61.20;;;;;;5111321;28;20071;-63
2021/06/02 00:49:23;;;;;;;0.25;0.20;;;23.20;61.10;;;;;;5112086;28;20089;-64
2021/06/02 00:52:07;;;;;;;0.10;0.10;;;23.20;60.90;;;;;;5110885;28;20104;-64
2021/06/02 00:54:37;;;;;;;0.28;0.20;;;23.20;60.80;;;;;;5111726;28;20130;-64
2021/06/02 00:57:18;;;;;;;0.22;0.20;;;23.20;60.90;;;;;;5111470;28;20043;-64
2021/06/02 01:00:10;;;;;;;0.10;0.10;;;23.20;60.90;;;;;;5110859;28;20047;-64
2021/06/02 01:02:37;;;;;;;0.30;0.20;;;23.20;60.70;;;;;;5108636;28;20192;-64
2021/06/02 01:05:05;;;;;;;0.10;0.10;;;23.30;60.70;;;;;;5111923;28;20085;-64
2021/06/02 01:07:34;;;;;;;0.10;0.10;;;23.20;60.50;;;;;;5111626;28;20529;-64
2021/06/02 01:10:01;;;;;;;0.17;0.10;;;23.20;60.60;;;;;;5110886;28;20050;-64
2021/06/02 01:12:29;;;;;;;0.43;0.20;;;23.30;60.60;;;;;;5111789;28;20055;-64
2021/06/02 01:14:57;;;;;;;0.32;0.20;;;23.20;60.60;;;;;;5111818;28;20043;-64
2021/06/02 01:17:26;;;;;;;0.75;0.20;;;23.20;60.90;;;;;;5111413;28;20044;-64
2021/06/02 01:19:55;;;;;;;0.40;0.20;;;23.20;61.10;;;;;;5111396;28;20051;-64
2021/06/02 01:22:22;;;;;;;0.38;0.10;;;23.20;61.00;;;;;;5111572;28;20047;-64
2021/06/02 01:24:49;;;;;;;0.13;0.13;;;23.20;60.90;;;;;;5110955;28;20044;-64
2021/06/02 01:27:16;;;;;;;1.30;0.30;;;23.20;60.80;;;;;;5111559;28;20048;-64
2021/06/02 01:29:46;;;;;;;0.10;0.10;;;23.20;60.80;;;;;;5111819;28;20533;-64
2021/06/02 01:32:21;;;;;;;0.75;0.20;;;23.10;60.60;;;;;;5110373;28;20126;-64
2021/06/02 01:35:06;;;;;;;0.40;0.30;;;23.20;60.60;;;;;;5111512;28;20082;-64
2021/06/02 01:38:09;;;;;;;0.65;0.30;;;23.10;60.40;;;;;;5111247;28;20450;-64
2021/06/02 01:41:07;;;;;;;0.20;0.20;;;23.10;60.30;;;;;;5099693;28;20044;-64
2021/06/02 01:43:47;;;;;;;0.10;0.10;;;23.10;60.20;;;;;;5111351;28;20509;-63
2021/06/02 01:46:28;;;;;;;0.38;0.28;;;23.10;60.20;;;;;;5111261;28;20055;-64
2021/06/02 01:49:15;;;;;;;0.40;0.30;;;23.10;60.10;;;;;;5098427;28;20044;-64
2021/06/02 01:52:00;;;;;;;0.28;0.10;;;23.10;60.30;;;;;;5111404;28;20048;-64
2021/06/02 01:55:13;;;;;;;0.20;0.20;;;23.10;60.30;;;;;;5111385;28;20510;-64
2021/06/02 01:58:13;;;;;;;0.25;0.17;;;23.10;60.70;;;;;;5099970;28;20052;-64
2021/06/02 02:01:22;;;;;;;0.63;0.30;;;23.00;60.90;;;;;;5041896;28;20072;-64
2021/06/02 02:04:20;;;;;;;0.57;0.40;;;22.90;61.40;;;;;;5027944;28;21132;-64
2021/06/02 02:07:23;;;;;;;0.30;0.30;;;22.80;61.80;;;;;;5027433;28;20049;-64
2021/06/02 02:10:03;;;;;;;0.40;0.30;;;22.70;62.30;;;;;;5028845;28;20050;-64
2021/06/02 02:12:44;;;;;;;1.80;0.40;;;22.60;62.60;;;;;;5030529;28;20042;-64
2021/06/02 02:15:36;;;;;;;1.20;0.30;;;22.50;63.00;;;;;;5031886;28;20084;-64
2021/06/02 02:18:23;;;;;;;0.20;0.15;;;22.40;63.10;;;;;;5031951;28;20099;-64
2021/06/02 02:21:10;;;;;;;0.25;0.20;;;22.40;63.60;;;;;;5031975;28;20540;-64
2021/06/02 02:23:44;;;;;;;0.43;0.30;;;22.20;63.70;;;;;;5031512;28;20053;-64
2021/06/02 02:26:29;;;;;;;0.22;0.20;;;22.20;63.70;;;;;;5031674;28;20437;-64
2021/06/02 02:29:10;;;;;;;0.80;0.40;;;22.20;63.70;;;;;;5031652;28;20057;-63
2021/06/02 02:31:55;;;;;;;0.75;0.40;;;22.10;63.50;;;;;;5031404;28;20045;-64
2021/06/02 02:35:02;;;;;;;0.38;0.15;;;22.10;63.60;;;;;;5031388;28;20049;-64
2021/06/02 02:37:31;;;;;;;0.20;0.20;;;22.10;63.60;;;;;;5055355;28;20129;-64
2021/06/02 02:40:07;;;;;;;0.40;0.30;;;22.10;63.80;;;;;;5100454;28;20050;-64
2021/06/02 02:42:50;;;;;;;0.47;0.40;;;22.00;63.90;;;;;;5113924;28;20047;-64
2021/06/02 02:45:30;;;;;;;0.52;0.40;;;22.00;64.30;;;;;;5102284;28;20096;-64
2021/06/02 02:48:46;;;;;;;0.45;0.30;;;21.90;64.60;;;;;;5114377;28;20048;-64
2021/06/02 02:51:56;;;;;;;0.25;0.25;;;21.90;64.70;;;;;;5030953;28;20077;-64
2021/06/02 02:54:35;;;;;;;0.20;0.20;;;21.90;64.40;;;;;;5031351;28;20058;-64
2021/06/02 02:57:30;;;;;;;0.30;0.30;;;21.90;64.20;;;;;;5026903;28;20132;-64
2021/06/02 03:00:08;;;;;;;0.20;0.20;;;22.00;64.20;;;;;;5019935;28;20124;-64
2021/06/02 03:03:04;;;;;;;0.47;0.40;;;22.00;64.30;;;;;;5026766;28;20077;-64
2021/06/02 03:05:33;;;;;;;0.68;0.40;;;22.00;64.40;;;;;;5030998;28;20053;-64
2021/06/02 03:08:27;;;;;;;0.52;0.25;;;21.90;65.40;;;;;;5030601;28;20092;-64
2021/06/02 03:11:08;;;;;;;0.20;0.20;;;21.80;66.00;;;;;;5029886;28;20045;-64
2021/06/02 03:13:43;;;;;;;0.10;0.10;;;21.80;66.90;;;;;;5030577;28;20088;-64
2021/06/02 03:16:18;;;;;;;0.20;0.20;;;21.80;66.50;;;;;;5015443;28;20050;-64
2021/06/02 03:18:58;;;;;;;0.13;0.13;;;21.70;66.70;;;;;;5024875;28;20088;-64
2021/06/02 03:21:55;;;;;;;0.68;0.40;;;21.60;67.10;;;;;;5046173;28;20084;-64
2021/06/02 03:24:58;;;;;;;0.20;0.20;;;21.50;67.70;;;;;;5110195;28;20095;-64
2021/06/02 03:27:41;;;;;;;0.10;0.10;;;21.50;67.70;;;;;;5113116;28;20467;-64
2021/06/02 03:30:08;;;;;;;0.40;0.20;;;21.60;67.60;;;;;;5112938;28;20075;-64
2021/06/02 03:33:09;;;;;;;0.30;0.20;;;21.60;67.60;;;;;;5113390;28;20078;-64
2021/06/02 03:35:54;;;;;;;0.10;0.10;;;21.60;67.40;;;;;;5029666;28;20065;-64
2021/06/02 03:38:59;;;;;;;0.35;0.25;;;21.70;67.20;;;;;;5030194;28;20162;-64
2021/06/02 03:41:50;;;;;;;0.47;0.20;;;21.70;67.00;;;;;;4971471;28;20133;-64
2021/06/02 03:44:20;;;;;;;0.17;0.17;;;21.70;66.90;;;;;;4971240;28;20081;-64
2021/06/02 03:47:07;;;;;;;0.20;0.17;;;21.80;66.60;;;;;;4971551;28;20043;-64
2021/06/02 03:50:07;;;;;;;0.22;0.20;;;21.80;66.50;;;;;;4971155;28;20042;-64
2021/06/02 03:52:48;;;;;;;0.57;0.32;;;21.90;66.30;;;;;;4970815;28;20530;-64
2021/06/02 03:55:37;;;;;;;1.27;0.30;;;21.90;66.10;;;;;;4971112;28;20104;-64
2021/06/02 03:58:33;;;;;;;0.30;0.30;;;21.80;66.00;;;;;;4971035;28;20546;-64
2021/06/02 04:01:14;;;;;;;0.47;0.35;;;21.80;66.00;;;;;;4971249;28;20078;-64
2021/06/02 04:04:19;;;;;;;0.30;0.20;;;21.80;66.00;;;;;;4977985;28;20082;-64
2021/06/02 04:07:10;;;;;;;0.20;0.20;;;21.90;66.10;;;;;;4970860;28;20565;-64
2021/06/02 04:09:41;;;;;;;0.68;0.40;;;21.90;65.90;;;;;;4970458;28;20074;-64
2021/06/02 04:12:18;;;;;;;0.40;0.25;;;21.80;65.70;;;;;;5025847;28;20206;-64
2021/06/02 04:14:54;;;;;;;0.77;0.32;;;21.80;65.90;;;;;;5112366;28;20051;-64
2021/06/02 04:17:22;;;;;;;0.28;0.20;;;21.70;66.10;;;;;;5112354;28;20122;-64
2021/06/02 04:19:50;;;;;;;0.32;0.30;;;21.60;66.30;;;;;;5112745;28;20483;-64
2021/06/02 04:22:22;;;;;;;0.25;0.20;;;21.60;66.50;;;;;;5112273;28;20047;-64
2021/06/02 04:24:49;;;;;;;0.40;0.40;;;21.60;66.50;;;;;;5112490;28;20123;-64
2021/06/02 04:27:18;;;;;;;0.30;0.20;;;21.50;66.70;;;;;;5112573;28;20055;-64
2021/06/02 04:29:48;;;;;;;0.55;0.40;;;21.50;66.70;;;;;;5112568;28;20505;-64
2021/06/02 04:32:14;;;;;;;0.40;0.40;;;21.60;66.50;;;;;;5112126;28;20048;-64
2021/06/02 04:34:42;;;;;;;1.15;0.38;;;21.60;67.00;;;;;;5111828;28;20471;-64
2021/06/02 04:37:10;;;;;;;0.35;0.32;;;21.50;67.20;;;;;;5112329;28;20140;-64
2021/06/02 04:39:39;;;;;;;0.40;0.40;;;21.40;67.70;;;;;;5112035;28;20130;-64
2021/06/02 04:42:08;;;;;;;0.63;0.40;;;21.40;68.00;;;;;;5112287;28;20079;-64
2021/06/02 04:44:35;;;;;;;0.98;0.50;;;21.40;67.80;;;;;;5111194;28;20078;-64
2021/06/02 04:47:03;;;;;;;0.52;0.40;;;21.40;68.20;;;;;;5111886;28;20043;-64
2021/06/02 04:49:57;;;;;;;0.95;0.60;;;21.30;68.40;;;;;;5111361;28;20503;-64
2021/06/02 04:52:33;;;;;;;0.32;0.32;;;21.20;68.50;;;;;;5111924;28;20083;-64
2021/06/02 04:55:08;;;;;;;0.40;0.40;;;21.20;68.90;;;;;;5111905;28;20086;-64
2021/06/02 04:58:09;;;;;;;0.50;0.50;;;21.10;69.20;;;;;;5111797;28;20047;-64
2021/06/02 05:00:44;;;;;;;0.55;0.45;;;21.00;69.60;;;;;;5074862;28;20055;-64
2021/06/02 05:03:41;;;;;;;0.93;0.40;;;20.90;69.70;;;;;;5107181;28;20047;-64
2021/06/02 05:06:45;;;;;;;0.75;0.30;;;20.90;70.00;;;;;;5112146;28;20057;-64
2021/06/02 05:09:41;;;;;;;0.38;0.38;;;20.90;70.10;;;;;;5110342;28;20061;-64
2021/06/02 05:12:44;;;;;;;0.65;0.40;;;20.80;70.10;;;;;;5109200;28;20489;-64
2021/06/02 05:15:23;;;;;;;0.40;0.40;;;20.80;70.20;;;;;;5111659;28;20127;-64
2021/06/02 05:18:23;;;;;;;0.43;0.30;;;20.80;70.20;;;;;;5099258;28;20098;-64
2021/06/02 05:24:26;;;;;;;0.32;0.30;;;20.90;69.90;;;;;;5110749;28;20123;-64
2021/06/02 05:27:21;;;;;;;0.50;0.50;;;20.90;70.20;;;;;;5111440;28;20058;-64
2021/06/02 05:30:17;;;;;;;0.60;0.40;;;20.90;70.20;;;;;;5100200;28;20067;-64
2021/06/02 05:33:14;;;;;;;0.50;0.40;;;20.90;70.80;;;;;;5107712;28;20205;-64
2021/06/02 05:36:11;;;;;;;0.22;0.22;;;20.80;70.90;;;;;;5103527;28;20113;-70
2021/06/02 05:39:09;;;;;;;0.68;0.40;;;20.90;71.00;;;;;;5096963;28;20161;-69
2021/06/02 05:42:02;;;;;;;0.43;0.40;;;20.90;71.10;;;;;;5097211;28;20078;-66
2021/06/02 05:44:45;;;;;;;0.52;0.52;;;20.90;71.60;;;;;;5093091;28;20044;-69
2021/06/02 05:47:20;;;;;;;0.80;0.32;;;20.90;71.60;;;;;;5093355;28;20287;-68
2021/06/02 05:50:02;;;;;;;1.55;0.40;;;20.90;71.50;;;;;;5095063;28;20527;-69
2021/06/02 05:52:34;;;;;;;0.50;0.40;;;21.10;71.20;;;;;;5095459;28;20043;-67
2021/06/02 05:55:28;;;;;;;0.55;0.45;;;21.20;70.80;;;;;;5096245;28;20082;-67
2021/06/02 05:58:36;;;;;;;0.52;0.43;;;21.30;70.70;;;;;;5096049;28;20121;-68
2021/06/02 06:01:29;;;;;;;0.43;0.43;;;21.20;71.40;;;;;;5062698;28;20551;-69
2021/06/02 06:04:11;;;;;;;0.88;0.40;;;21.10;71.90;;;;;;5010598;28;20049;-68
2021/06/02 06:06:58;;;;;;;0.40;0.40;;;21.00;72.10;;;;;;5010053;28;20139;-69
2021/06/02 06:09:24;;;;;;;0.38;0.30;;;21.10;72.00;;;;;;5010594;28;20053;-69
2021/06/02 06:12:40;;;;;;;0.50;0.50;;;21.20;71.70;;;;;;5010646;28;20077;-69
2021/06/02 06:15:33;;;;;;;0.60;0.40;;;21.20;71.80;;;;;;4990734;28;20125;-69
2021/06/02 06:18:23;;;;;;;0.77;0.70;;;21.30;71.40;;;;;;4989766;28;20509;-69
2021/06/02 06:21:22;;;;;;;1.23;0.73;;;21.40;71.10;;;;;;4989664;28;20571;-67
2021/06/02 06:24:00;;;;;;;0.83;0.50;;;21.40;72.00;;;;;;4991512;28;20060;-69
2021/06/02 06:26:36;;;;;;;0.60;0.60;;;21.20;72.20;;;;;;4990123;28;20050;-69
2021/06/02 06:29:28;;;;;;;0.45;0.45;;;21.20;72.80;;;;;;4986257;28;20521;-68
2021/06/02 06:31:56;;;;;;;1.27;0.70;;;21.10;72.90;;;;;;4968943;28;20390;-69
2021/06/02 06:34:30;;;;;;;0.82;0.50;;;21.20;73.20;;;;;;4986817;28;20058;-67
2021/06/02 06:36:58;;;;;;;1.05;0.65;;;21.10;73.30;;;;;;4985104;28;20061;-66
2021/06/02 06:39:29;;;;;;;0.88;0.60;;;21.10;73.80;;;;;;5024297;28;20053;-67
2021/06/02 06:41:59;;;;;;;0.52;0.52;;;21.00;74.10;;;;;;5061739;28;20149;-68
2021/06/02 06:44:27;;;;;;;0.50;0.47;;;20.90;74.80;;;;;;5070623;28;20072;-69
2021/06/02 06:46:55;;;;;;;2.00;0.60;;;20.80;75.20;;;;;;5070761;28;20621;-68
2021/06/02 06:49:25;;;;;;;0.60;0.52;;;20.80;75.70;;;;;;5095307;28;20057;-69
2021/06/02 06:51:52;;;;;;;0.80;0.70;;;20.70;75.70;;;;;;5111276;28;20526;-68
2021/06/02 06:54:22;;;;;;;0.98;0.70;;;20.70;75.90;;;;;;5113652;28;20047;-69
2021/06/02 06:56:49;;;;;;;0.50;0.50;;;20.70;76.20;;;;;;5112369;28;20126;-69
2021/06/02 06:59:16;;;;;;;0.57;0.57;;;20.60;76.20;;;;;;5104474;28;20048;-68
2021/06/02 07:01:43;;;;;;;1.80;0.73;;;20.70;76.30;;;;;;5107029;28;20047;-67
2021/06/02 07:04:10;;;;;;;0.68;0.50;;;20.70;76.50;;;;;;5095873;28;20491;-67
2021/06/02 07:06:38;;;;;;;0.50;0.50;;;20.60;76.70;;;;;;5097583;28;20048;-67
2021/06/02 07:09:05;;;;;;;0.80;0.75;;;20.50;76.80;;;;;;5113140;28;20467;-68
2021/06/02 07:11:40;;;;;;;0.82;0.65;;;20.50;76.90;;;;;;5113722;28;20135;-70
2021/06/02 07:14:09;;;;;;;0.60;0.43;;;20.60;76.90;;;;;;5102512;28;20185;-66
2021/06/02 07:16:37;;;;;;;0.47;0.40;;;20.60;76.50;;;;;;5101577;28;20047;-68
2021/06/02 07:19:06;;;;;;;1.17;0.75;;;20.80;76.10;;;;;;5112692;28;20126;-65
2021/06/02 07:21:39;;;;;;;0.57;0.50;;;20.80;75.40;;;;;;5102024;28;20067;-64
2021/06/02 07:24:07;;;;;;;0.52;0.50;;;20.80;74.90;;;;;;5106110;28;20565;-64
2021/06/02 07:26:34;;;;;;;0.73;0.47;;;20.80;75.20;;;;;;5113412;28;20176;-63
2021/06/02 07:29:01;;;;;;;0.88;0.73;;;20.90;74.90;;;;;;5099750;28;20046;-64
2021/06/02 07:31:27;;;;;;;0.70;0.55;;;20.90;74.80;;;;;;5110776;28;20394;-64
2021/06/02 07:33:53;;;;;;;0.55;0.52;;;20.90;74.70;;;;;;5098567;28;20082;-63
2021/06/02 07:36:20;;;;;;;0.65;0.65;;;20.80;74.60;;;;;;5107035;28;20044;-64
2021/06/02 07:38:46;;;;;;;0.55;0.50;;;21.00;74.60;;;;;;5104257;28;20124;-64
2021/06/02 07:41:12;;;;;;;1.30;0.70;;;21.00;74.10;;;;;;5098557;28;20052;-64
2021/06/02 07:43:39;;;;;;;0.93;0.80;;;21.00;73.40;;;;;;5094288;28;20082;-64
2021/06/02 07:46:05;;;;;;;0.50;0.50;;;20.90;74.10;;;;;;5100328;28;20054;-63
2021/06/02 07:48:31;;;;;;;0.57;0.57;;;20.80;73.90;;;;;;5096117;28;20158;-65
2021/06/02 07:50:58;;;;;;;0.85;0.60;;;20.90;73.10;;;;;;5092349;28;20067;-65
2021/06/02 07:53:26;;;;;;;0.77;0.60;;;20.90;72.50;;;;;;5106654;28;20055;-63
2021/06/02 07:55:53;;;;;;;0.60;0.60;;;21.00;71.80;;;;;;5112685;28;20524;-64
2021/06/02 07:58:20;;;;;;;1.35;0.73;;;21.00;71.60;;;;;;5112338;28;20507;-64
2021/06/02 08:00:46;;;;;;;0.77;0.68;;;21.00;71.90;;;;;;5109440;28;20510;-64
2021/06/02 08:03:13;;;;;;;0.85;0.50;;;21.00;72.00;;;;;;5112541;28;20047;-64
2021/06/02 08:05:39;;;;;;;0.80;0.65;;;21.00;71.60;;;;;;5107020;28;20427;-64
2021/06/02 08:08:07;;;;;;;0.73;0.55;;;21.00;71.80;;;;;;5111729;28;20135;-64
2021/06/02 08:10:33;;;;;;;1.30;0.68;;;21.00;72.10;;;;;;5102069;28;20092;-65
2021/06/02 08:13:01;;;;;;;0.77;0.47;;;21.10;71.90;;;;;;5112455;28;20506;-65
2021/06/02 08:15:29;;;;;;;0.47;0.38;;;21.20;71.70;;;;;;5110998;28;20054;-65
2021/06/02 08:17:55;;;;;;;0.47;0.47;;;21.20;71.40;;;;;;5111587;28;20063;-64
2021/06/02 08:20:22;;;;;;;1.10;0.60;;;21.30;71.30;;;;;;5112249;28;20126;-64
2021/06/02 08:22:49;;;;;;;0.57;0.43;;;21.30;71.10;;;;;;5111973;28;20131;-65
2021/06/02 08:25:16;;;;;;;1.58;0.80;;;21.20;71.20;;;;;;5112022;28;20054;-63
2021/06/02 08:27:44;;;;;;;1.17;0.70;;;21.20;71.30;;;;;;5112385;28;20096;-64
2021/06/02 08:30:11;;;;;;;1.00;0.60;;;21.20;71.60;;;;;;5112515;28;20075;-65
2021/06/02 08:32:40;;;;;;;0.75;0.60;;;21.10;71.90;;;;;;5112214;28;20044;-65
2021/06/02 08:35:08;;;;;;;0.50;0.40;;;21.10;71.50;;;;;;5111070;28;20126;-64
2021/06/02 08:37:34;;;;;;;0.57;0.50;;;21.10;72.10;;;;;;5110159;28;20043;-64
2021/06/02 08:40:01;;;;;;;0.55;0.35;;;21.20;70.80;;;;;;5095151;28;20047;-64
2021/06/02 08:42:27;;;;;;;0.40;0.40;;;21.20;71.00;;;;;;5104139;28;20066;-64
2021/06/02 08:44:54;;;;;;;0.50;0.50;;;21.00;70.80;;;;;;5110657;28;20075;-65
2021/06/02 08:47:21;;;;;;;0.50;0.50;;;20.90;71.30;;;;;;5109149;28;20075;-65
2021/06/02 08:49:47;;;;;;;0.50;0.30;;;20.80;71.70;;;;;;5111247;28;20040;-65
2021/06/02 08:52:14;;;;;;;0.40;0.40;;;20.70;72.00;;;;;;5109998;28;20092;-65
2021/06/02 08:54:40;;;;;;;0.85;0.55;;;20.70;72.00;;;;;;5110331;28;20039;-65
2021/06/02 08:57:09;;;;;;;0.50;0.50;;;20.70;72.00;;;;;;5111025;28;20098;-64
2021/06/02 08:59:36;;;;;;;0.50;0.50;;;20.60;72.10;;;;;;5110765;28;20361;-65
2021/06/02 09:02:04;;;;;;;0.45;0.45;;;20.60;72.20;;;;;;5096913;28;20047;-65
2021/06/02 09:04:33;;;;;;;0.73;0.45;;;20.50;72.30;;;;;;5103075;28;20173;-65
2021/06/02 09:07:03;;;;;;;0.45;0.40;;;20.40;72.60;;;;;;5110049;28;20044;-65
2021/06/02 09:09:30;;;;;;;0.50;0.43;;;20.40;72.70;;;;;;5110066;28;20491;-65
2021/06/02 09:12:04;;;;;;;0.70;0.60;;;20.50;72.70;;;;;;5110078;28;20173;-65
2021/06/02 09:14:35;;;;;;;0.80;0.68;;;20.40;73.90;;;;;;5096661;28;20090;-64
2021/06/02 09:17:10;;;;;;;0.43;0.43;;;20.30;73.40;;;;;;5105097;28;20185;-65
2021/06/02 09:19:44;;;;;;;0.80;0.52;;;20.30;73.50;;;;;;5109121;28;20086;-65
2021/06/02 09:22:20;;;;;;;1.25;0.60;;;20.30;73.40;;;;;;5111241;28;20127;-65
2021/06/02 09:24:51;;;;;;;0.63;0.50;;;20.40;73.30;;;;;;5100817;28;20043;-65
2021/06/02 09:27:19;;;;;;;;;;;20.40;73.40;;;;;;5103142;28;20521;-66
2021/06/02 09:29:53;;;;;;;0.52;0.52;;;20.40;73.40;;;;;;5113737;28;20000;-65
2021/06/02 09:32:21;;;;;;;0.43;0.43;;;20.30;73.40;;;;;;5109410;28;20144;-66
2021/06/02 09:34:48;;;;;;;0.70;0.70;;;20.30;73.50;;;;;;5113755;28;20043;-66
2021/06/02 09:37:15;;;;;;;0.82;0.80;;;20.20;74.30;;;;;;5113911;28;20052;-65
2021/06/02 09:39:43;;;;;;;0.50;0.50;;;20.10;74.80;;;;;;5114351;28;20122;-65
2021/06/02 09:42:44;;;;;;;0.60;0.60;;;20.20;75.00;;;;;;5113015;28;20047;-67
2021/06/02 09:45:13;;;;;;;0.50;0.50;;;20.30;74.90;;;;;;5108139;28;20095;-66
2021/06/02 09:47:46;;;;;;;0.65;0.63;;;20.30;74.80;;;;;;5098634;28;20242;-64
2021/06/02 09:50:27;;;;;;;0.85;0.70;;;20.30;75.50;;;;;;5094276;28;20245;-64
2021/06/02 09:52:55;;;;;;;0.40;0.40;;;20.30;74.50;;;;;;5099743;28;20052;-65
2021/06/02 09:55:26;;;;;;;0.70;0.70;;;20.40;74.50;;;;;;5110742;28;20043;-66
2021/06/02 09:58:01;;;;;;;0.60;0.47;;;20.40;74.70;;;;;;5087127;28;20138;-66
2021/06/02 10:00:29;;;;;;;0.60;0.60;;;20.30;75.10;;;;;;5096283;28;20044;-66
2021/06/02 10:03:20;;;;;;;0.55;0.55;;;20.30;75.80;;;;;;5105420;28;20604;-66
2021/06/02 10:05:47;;;;;;;0.60;0.60;;;20.20;76.30;;;;;;5106100;28;20055;-66
2021/06/02 10:08:34;;;;;;;0.40;0.40;;;20.00;77.20;;;;;;5073987;28;1118638;-66
2021/06/02 10:11:14;;;;;;;1.15;0.60;;;20.00;77.50;;;;;;5108707;28;20040;-65
2021/06/02 10:13:40;;;;;;;0.83;0.60;;;20.00;77.20;;;;;;5097213;28;20129;-65
2021/06/02 10:16:09;;;;;;;0.60;0.60;;;20.00;77.40;;;;;;5101707;28;20043;-65
2021/06/02 10:18:38;;;;;;;0.47;0.47;;;19.90;77.80;;;;;;5114172;28;20048;-65
2021/06/02 10:21:13;;;;;;;0.50;0.50;;;19.90;77.80;;;;;;5112238;28;20173;-65
2021/06/02 10:23:46;;;;;;;1.15;0.70;;;19.90;77.40;;;;;;5114617;28;20044;-64
2021/06/02 10:26:17;;;;;;;0.70;0.70;;;20.00;77.10;;;;;;5108932;28;20196;-65
2021/06/02 10:28:46;;;;;;;1.00;0.77;;;20.00;76.60;;;;;;5113640;28;20112;-65
2021/06/02 10:31:14;;;;;;;0.65;0.65;;;20.10;76.40;;;;;;5113027;28;20518;-65
2021/06/02 10:33:41;;;;;;;0.90;0.70;;;20.10;75.90;;;;;;5113608;28;20118;-65
2021/06/02 10:36:09;;;;;;;1.10;0.70;;;20.10;75.50;;;;;;5113533;28;20051;-65
2021/06/02 10:38:52;;;;;;;0.70;0.70;;;20.10;75.30;;;;;;5113428;28;20455;-65
2021/06/02 10:41:32;;;;;;;0.43;0.38;;;20.10;75.20;;;;;;5113330;28;20539;-65
2021/06/02 10:44:10;;;;;;;1.30;0.80;;;20.10;75.20;;;;;;5114021;28;20510;-65
2021/06/02 10:46:42;;;;;;;0.80;0.80;;;19.90;75.60;;;;;;5114057;28;20126;-65
2021/06/02 10:49:09;;;;;;;1.02;0.82;;;19.60;76.30;;;;;;5106283;28;20127;-66
2021/06/02 10:51:36;;;;;;;0.80;0.80;;;19.40;77.40;;;;;;5111244;28;20367;-65
2021/06/02 10:54:21;;;;;;;0.60;0.60;;;19.40;77.30;;;;;;5114306;28;20172;-66
2021/06/02 10:56:57;;;;;;;0.90;0.82;;;19.40;77.00;;;;;;5113440;28;20043;-66
2021/06/02 10:59:31;;;;;;;1.15;0.75;;;19.50;76.80;;;;;;5113785;28;20039;-66
2021/06/02 11:02:13;;;;;;;0.63;0.57;;;19.50;76.40;;;;;;5109080;28;20161;-65
2021/06/02 11:04:42;;;;;;;0.57;0.57;;;19.60;76.00;;;;;;5098304;28;20126;-65
2021/06/02 11:07:20;;;;;;;1.02;0.60;;;19.80;75.50;;;;;;5092677;28;20052;-66
2021/06/02 11:10:06;;;;;;;0.93;0.77;;;19.90;74.80;;;;;;5094615;28;20617;-65
2021/06/02 11:12:48;;;;;;;1.33;0.70;;;19.90;74.20;;;;;;5111552;28;20512;-65
2021/06/02 11:15:30;;;;;;;0.88;0.73;;;19.90;73.80;;;;;;5098430;28;20507;-64
2021/06/02 11:18:09;;;;;;;1.02;0.80;;;19.90;73.70;;;;;;5093050;28;20083;-65
2021/06/02 11:20:57;;;;;;;0.60;0.60;;;19.80;73.30;;;;;;5104268;28;20733;-66
2021/06/02 11:23:35;;;;;;;0.80;0.80;;;19.70;73.60;;;;;;5107013;28;20043;-66
2021/06/02 11:26:33;;;;;;;1.00;0.70;;;19.80;73.70;;;;;;5111932;28;20098;-66
2021/06/02 11:29:13;;;;;;;0.88;0.80;;;19.80;73.30;;;;;;5028844;28;20405;-66
2021/06/02 11:31:39;;;;;;;1.58;0.80;;;19.80;72.90;;;;;;5028786;28;20508;-65
2021/06/02 11:34:29;;;;;;;0.93;0.70;;;19.80;73.00;;;;;;5028829;28;20511;-66
2021/06/02 11:37:02;;;;;;;0.88;0.57;;;19.80;73.00;;;;;;5026874;28;20045;-65
2021/06/02 11:39:29;;;;;;;1.33;0.70;;;19.90;72.80;;;;;;5029629;28;20535;-65
2021/06/02 11:41:58;;;;;;;0.98;0.73;;;20.00;72.50;;;;;;5027124;28;20038;-65
2021/06/02 11:44:32;;;;;;;0.70;0.70;;;19.80;71.40;;;;;;5028823;28;20045;-65
2021/06/02 11:46:58;;;;;;;0.70;0.70;;;19.60;72.40;;;;;;5027600;28;20124;-65
2021/06/02 11:49:29;;;;;;;1.73;0.93;;;19.60;72.50;;;;;;5029320;28;20120;-65
2021/06/02 11:51:56;;;;;;;0.93;0.60;;;19.70;72.40;;;;;;5027376;28;20483;-65
2021/06/02 11:54:24;;;;;;;1.02;0.63;;;19.60;72.20;;;;;;5029885;28;20118;-66
2021/06/02 11:56:51;;;;;;;0.90;0.63;;;19.70;71.80;;;;;;5028166;28;20596;-65
2021/06/02 11:59:17;;;;;;;1.65;0.70;;;19.80;71.50;;;;;;5029372;28;20190;-66
2021/06/02 12:01:43;;;;;;;0.60;0.50;;;19.90;71.20;;;;;;5029380;28;20464;-67
2021/06/02 12:04:10;;;;;;;0.60;0.60;;;19.90;71.00;;;;;;5044891;28;20047;-65
2021/06/02 12:06:37;;;;;;;0.82;0.73;;;20.00;70.50;;;;;;5112342;28;20040;-65
2021/06/02 12:09:10;;;;;;;0.85;0.70;;;20.00;70.20;;;;;;5093283;28;20067;-67
2021/06/02 12:11:38;;;;;;;0.55;0.45;;;20.00;69.70;;;;;;5112501;28;20165;-67
2021/06/02 12:14:04;;;;;;;0.68;0.68;;;20.00;69.90;;;;;;5111520;28;20996;-67
2021/06/02 12:16:30;;;;;;;0.52;0.47;;;20.00;69.90;;;;;;5111511;28;20130;-67
2021/06/02 12:19:00;;;;;;;0.80;0.80;;;20.00;69.90;;;;;;5095059;28;20144;-65
2021/06/02 12:21:30;;;;;;;0.40;0.40;;;20.10;69.60;;;;;;5092724;28;20070;-66
2021/06/02 12:23:59;;;;;;;;;;;20.10;69.40;;;;;;5108546;28;20462;-65
2021/06/02 12:26:36;;;;;;;1.23;0.80;;;20.20;69.00;;;;;;5105189;28;20375;-64
2021/06/02 12:29:07;;;;;;;0.60;0.60;;;20.10;68.90;;;;;;5102461;28;20539;-65
2021/06/02 12:31:44;;;;;;;1.38;0.63;;;20.20;69.00;;;;;;5112040;28;20089;-65
2021/06/02 12:34:21;;;;;;;0.63;0.60;;;20.30;68.70;;;;;;5106690;28;20114;-65
2021/06/02 12:36:58;;;;;;;0.77;0.70;;;20.30;68.20;;;;;;5112003;28;20051;-65
2021/06/02 12:39:28;;;;;;;0.50;0.50;;;20.40;67.50;;;;;;5111546;28;20051;-65
2021/06/02 12:41:56;;;;;;;0.40;0.40;;;20.30;67.50;;;;;;5112379;28;20043;-66
2021/06/02 12:44:27;;;;;;;0.82;0.70;;;20.30;67.80;;;;;;5111274;28;20047;-65
2021/06/02 12:47:09;;;;;;;0.60;0.60;;;20.30;67.80;;;;;;5111520;28;20048;-66
2021/06/02 12:49:44;;;;;;;1.25;0.70;;;20.40;67.70;;;;;;5110816;28;20043;-65
2021/06/02 12:52:10;;;;;;;0.50;0.50;;;20.50;67.70;;;;;;5092039;28;20039;-67
2021/06/02 12:54:40;;;;;;;0.65;0.65;;;20.50;67.60;;;;;;5093130;28;20052;-65
2021/06/02 12:57:07;;;;;;;0.55;0.55;;;20.50;67.10;;;;;;5100892;28;20040;-66
2021/06/02 12:59:36;;;;;;;0.80;0.57;;;20.40;67.20;;;;;;5104104;28;20048;-66
2021/06/02 13:02:06;;;;;;;1.70;1.00;;;20.40;67.30;;;;;;5096813;28;20157;-66
2021/06/02 13:04:34;;;;;;;0.57;0.50;;;20.30;67.30;;;;;;5104377;28;20048;-67
2021/06/02 13:07:01;;;;;;;0.50;0.50;;;20.20;67.60;;;;;;5107093;28;20040;-66
2021/06/02 13:09:28;;;;;;;0.63;0.63;;;20.20;68.80;;;;;;5098168;28;20043;-66
2021/06/02 13:11:55;;;;;;;1.08;0.50;;;20.30;67.50;;;;;;5111190;28;20101;-64
2021/06/02 13:14:34;;;;;;;0.60;0.50;;;20.30;67.10;;;;;;5107501;28;20093;-67
2021/06/02 13:17:00;;;;;;;0.43;0.43;;;20.30;67.20;;;;;;5101363;28;20063;-67
2021/06/02 13:19:38;;;;;;;0.77;0.40;;;20.50;67.30;;;;;;5092983;28;20040;-64
2021/06/02 13:22:05;;;;;;;0.80;0.68;;;20.50;67.20;;;;;;5094040;28;20513;-65
2021/06/02 13:24:38;;;;;;;0.60;0.60;;;20.50;66.70;;;;;;5104810;28;20052;-66
2021/06/02 13:27:06;;;;;;;0.50;0.50;;;20.50;67.00;;;;;;5108412;28;20185;-66
2021/06/02 13:29:32;;;;;;;0.80;0.52;;;20.50;67.20;;;;;;5106389;28;20079;-66
2021/06/02 13:31:59;;;;;;;0.55;0.55;;;20.60;67.20;;;;;;5104729;28;20048;-65
2021/06/02 13:34:34;;;;;;;1.38;0.60;;;20.70;66.80;;;;;;5108083;28;20048;-66
2021/06/02 13:37:18;;;;;;;0.90;0.60;;;20.70;65.70;;;;;;5111423;28;20126;-65